Time;durP1;ratioP1;P1;durP2;ratioP2;P2;SDS_P1;SDS_P2;PMS_P1;PMS_P2;Temp;Humidity;BMP_temperature;BMP_pressure;BME280_temperature;BME280_humidity;BME280_pressure;Samples;Min_cycle;Max_cycle;Signal;HPM_P1;HPM_P2
2022/10/18 00:02:07;;;;;;;19.13;14.90;;;13.80;99.90;;;;;;5001249;28;38798;-83
2022/10/18 00:04:33;;;;;;;22.95;17.83;;;13.80;99.90;;;;;;4989796;28;37869;-82
2022/10/18 00:06:59;;;;;;;20.75;17.20;;;13.70;99.90;;;;;;4998423;28;39651;-83
2022/10/18 00:09:28;;;;;;;20.02;16.23;;;13.70;99.90;;;;;;4990732;28;37137;-80
2022/10/18 00:11:55;;;;;;;19.55;17.45;;;13.70;99.90;;;;;;4992997;28;37035;-83
2022/10/18 00:14:22;;;;;;;32.00;20.40;;;13.60;99.90;;;;;;4984951;28;36277;-82
2022/10/18 00:16:48;;;;;;;28.33;19.77;;;13.60;99.90;;;;;;4995055;28;39973;-82
2022/10/18 00:19:14;;;;;;;29.88;21.90;;;13.60;99.90;;;;;;4987877;28;37638;-82
2022/10/18 00:21:40;;;;;;;43.92;28.05;;;13.50;99.90;;;;;;5004913;28;38231;-81
2022/10/18 00:24:06;;;;;;;28.67;23.98;;;13.50;99.90;;;;;;4984843;28;36130;-82
2022/10/18 00:26:32;;;;;;;31.02;22.20;;;13.40;99.90;;;;;;5003659;28;39885;-82
2022/10/18 00:29:02;;;;;;;28.25;21.10;;;13.40;99.90;;;;;;4989897;28;37132;-82
2022/10/18 00:31:34;;;;;;;27.38;20.55;;;13.40;99.90;;;;;;4991389;28;36771;-80
2022/10/18 00:34:02;;;;;;;;;;;13.30;99.90;;;;;;4986403;28;36702;-80
2022/10/18 00:36:30;;;;;;;24.85;19.27;;;13.30;99.90;;;;;;4980190;28;47015;-79
2022/10/18 00:38:56;;;;;;;27.55;20.27;;;13.30;99.90;;;;;;5001042;28;37191;-80
2022/10/18 00:41:25;;;;;;;28.10;21.05;;;13.30;99.90;;;;;;5004931;28;38056;-81
2022/10/18 00:44:01;;;;;;;34.83;21.13;;;13.20;99.90;;;;;;4983113;28;38142;-80
2022/10/18 00:46:31;;;;;;;27.30;19.63;;;13.20;99.90;;;;;;4988030;28;46811;-80
2022/10/18 00:49:18;;;;;;;24.15;19.27;;;13.20;99.90;;;;;;4984536;28;37356;-81
2022/10/18 00:52:19;;;;;;;36.25;20.58;;;13.20;99.90;;;;;;5001891;28;48637;-81
2022/10/18 00:54:48;;;;;;;31.88;20.95;;;13.20;99.90;;;;;;4951893;28;47358;-80
2022/10/18 00:57:15;;;;;;;28.40;19.38;;;13.20;99.90;;;;;;5004654;28;38510;-79
2022/10/18 00:59:41;;;;;;;24.15;19.00;;;13.20;99.90;;;;;;4990210;28;39478;-80
2022/10/18 01:16:30;;;;;;;25.10;18.38;;;13.30;99.90;;;;;;5011152;28;39857;-81
2022/10/18 02:29:37;;;;;;;36.50;21.85;;;12.50;99.90;;;;;;4991566;23;20020;-83
2022/10/18 02:44:40;;;;;;;48.38;23.23;;;12.30;99.90;;;;;;5925237;23;20174;31
2022/10/18 05:01:52;;;;;;;;;;;11.10;99.90;;;;;;5368005;23;20052;-83
2022/10/18 05:27:42;;;;;;;23.98;19.65;;;10.80;99.90;;;;;;5566138;23;20046;-82
2022/10/18 05:30:26;;;;;;;21.58;17.08;;;10.70;99.90;;;;;;4963735;28;38550;-82
2022/10/18 05:40:46;;;;;;;23.42;20.00;;;10.50;99.90;;;;;;5678711;23;20050;-83
2022/10/18 05:47:11;;;;;;;33.37;22.53;;;10.50;99.90;;;;;;4996296;28;50231;-83
2022/10/18 05:55:16;;;;;;;27.58;19.52;;;10.40;99.90;;;;;;5629568;23;20037;-80
2022/10/18 05:57:42;;;;;;;22.00;17.67;;;10.30;99.90;;;;;;4994532;28;36750;-79
2022/10/18 06:00:09;;;;;;;20.80;17.40;;;10.30;99.90;;;;;;4979620;28;38048;-80
2022/10/18 06:02:36;;;;;;;37.87;23.40;;;10.30;99.90;;;;;;4999525;28;39176;-80
2022/10/18 06:05:03;;;;;;;25.00;18.33;;;10.30;99.90;;;;;;4982689;28;37829;-80
2022/10/18 06:07:29;;;;;;;17.47;15.37;;;10.20;99.90;;;;;;4999423;28;49202;-80
2022/10/18 06:09:55;;;;;;;18.63;15.93;;;10.20;99.90;;;;;;4982922;28;36746;-79
2022/10/18 06:12:21;;;;;;;22.90;18.73;;;10.30;99.90;;;;;;4992282;28;38401;-79
2022/10/18 06:14:48;;;;;;;17.33;15.37;;;10.30;99.90;;;;;;4968554;28;37698;-79
2022/10/18 06:17:14;;;;;;;18.60;15.83;;;10.20;99.90;;;;;;4994599;28;39734;-79
2022/10/18 06:19:43;;;;;;;26.17;18.33;;;10.20;99.90;;;;;;4976956;28;36657;-79
2022/10/18 06:22:10;;;;;;;23.53;18.50;;;10.20;99.90;;;;;;4997894;28;37774;-79
2022/10/18 06:24:36;;;;;;;25.00;18.03;;;10.20;99.90;;;;;;4980975;28;37712;-79
2022/10/18 06:27:08;;;;;;;21.87;16.53;;;10.20;99.90;;;;;;4992075;28;37973;-79
2022/10/18 06:29:38;;;;;;;20.07;16.00;;;10.20;99.90;;;;;;4990648;28;37658;-79
2022/10/18 06:32:05;;;;;;;22.07;17.70;;;10.20;99.90;;;;;;4969059;28;39029;-79
2022/10/18 06:34:32;;;;;;;28.87;17.43;;;10.10;99.90;;;;;;4994086;28;36801;-79
2022/10/18 06:36:58;;;;;;;22.73;16.33;;;10.20;99.90;;;;;;4980317;28;36595;-80
2022/10/18 06:39:28;;;;;;;22.70;16.67;;;10.10;99.90;;;;;;4979158;28;37184;-80
2022/10/18 06:41:54;;;;;;;23.53;15.13;;;10.10;99.90;;;;;;4989098;28;38541;-80
2022/10/18 06:44:21;;;;;;;19.60;14.93;;;10.10;99.90;;;;;;4986380;28;38453;-80
2022/10/18 06:46:48;;;;;;;17.80;14.27;;;10.10;99.90;;;;;;4980953;28;39770;-79
2022/10/18 06:49:15;;;;;;;19.03;15.17;;;10.10;99.90;;;;;;4979696;28;36134;-78
2022/10/18 06:51:43;;;;;;;20.80;15.73;;;10.10;99.90;;;;;;4978171;28;37771;-78
2022/10/18 06:54:09;;;;;;;19.47;15.67;;;10.10;99.90;;;;;;4976671;28;38694;-79
2022/10/18 06:56:36;;;;;;;20.93;15.60;;;10.10;99.90;;;;;;4982076;28;37965;-78
2022/10/18 06:59:02;;;;;;;20.17;15.07;;;10.20;99.90;;;;;;4967622;28;37452;-80
2022/10/18 07:01:28;;;;;;;19.77;15.20;;;10.20;99.90;;;;;;4969899;28;38759;-79
2022/10/18 07:03:55;;;;;;;23.03;15.20;;;10.20;99.90;;;;;;4976003;28;37435;-79
2022/10/18 07:06:22;;;;;;;22.80;14.67;;;10.20;99.90;;;;;;4994307;28;37327;-79
2022/10/18 07:08:54;;;;;;;18.53;14.03;;;10.20;99.90;;;;;;4977500;28;38193;-80
2022/10/18 07:11:23;;;;;;;20.07;14.87;;;10.20;99.90;;;;;;4969887;28;39318;-80
2022/10/18 07:14:01;;;;;;;16.13;13.67;;;10.20;99.90;;;;;;4973659;28;38718;-79
2022/10/18 07:16:28;;;;;;;15.90;12.80;;;10.20;99.90;;;;;;4981854;28;37972;-79
2022/10/18 07:18:55;;;;;;;17.35;13.43;;;10.30;99.90;;;;;;4970842;28;36710;-78
2022/10/18 07:21:23;;;;;;;21.83;16.10;;;10.30;99.90;;;;;;4973012;28;39802;-78
2022/10/18 07:23:51;;;;;;;27.87;15.83;;;10.40;99.90;;;;;;4991816;28;38399;-79
2022/10/18 07:26:31;;;;;;;30.57;16.83;;;10.40;99.90;;;;;;4998060;28;38472;-80
2022/10/18 07:29:09;;;;;;;18.27;13.33;;;10.50;99.90;;;;;;4984908;28;37510;-79
2022/10/18 07:31:37;;;;;;;28.27;17.23;;;10.50;99.90;;;;;;4995976;28;48782;-79
2022/10/18 07:34:04;;;;;;;24.07;11.87;;;10.60;99.90;;;;;;4975121;28;37541;-80
2022/10/18 07:36:31;;;;;;;31.00;13.70;;;10.70;99.90;;;;;;4987560;28;37872;-79
2022/10/18 07:38:57;;;;;;;34.47;14.57;;;10.90;99.90;;;;;;4991365;28;38267;-79
2022/10/18 07:41:23;;;;;;;29.60;11.75;;;11.10;99.90;;;;;;4988709;28;38808;-79
2022/10/18 07:43:51;;;;;;;22.33;9.43;;;11.40;99.90;;;;;;4970393;28;41555;-79
2022/10/18 07:46:21;;;;;;;42.03;13.07;;;11.70;99.90;;;;;;4976409;28;38895;-79
2022/10/18 07:48:48;;;;;;;30.90;10.52;;;11.90;99.90;;;;;;4996293;28;36299;-79
2022/10/18 07:51:14;;;;;;;22.38;9.65;;;12.10;99.90;;;;;;4977674;28;40019;-79
2022/10/18 07:53:40;;;;;;;28.15;8.45;;;12.30;99.90;;;;;;4968809;28;37923;-81
2022/10/18 07:56:14;;;;;;;23.25;9.55;;;12.50;99.90;;;;;;4988089;28;39556;-81
2022/10/18 07:58:42;;;;;;;17.63;7.43;;;12.70;99.90;;;;;;4993277;28;37521;-79
2022/10/18 08:01:08;;;;;;;24.10;7.68;;;12.80;99.90;;;;;;4974989;28;37894;-80
2022/10/18 08:03:36;;;;;;;34.25;9.32;;;12.90;99.90;;;;;;4977310;28;37133;-83
2022/10/18 08:06:04;;;;;;;28.42;8.07;;;13.00;99.90;;;;;;4981375;28;38197;-82
2022/10/18 08:08:31;;;;;;;21.63;8.70;;;13.00;99.90;;;;;;4998345;28;35773;-81
2022/10/18 08:11:17;;;;;;;28.35;7.78;;;13.10;99.90;;;;;;4986072;28;38558;-82
2022/10/18 08:13:44;;;;;;;24.98;7.00;;;13.20;99.90;;;;;;4977240;28;46987;-82
2022/10/18 08:16:14;;;;;;;18.00;6.15;;;13.20;99.90;;;;;;4977882;28;38461;-81
2022/10/18 08:18:40;;;;;;;22.45;6.97;;;13.30;99.90;;;;;;4973214;28;37575;-80
2022/10/18 08:21:09;;;;;;;17.50;6.95;;;13.30;99.90;;;;;;4981490;28;39460;-80
2022/10/18 08:23:36;;;;;;;19.40;6.28;;;13.40;99.90;;;;;;4987020;28;37071;-81
2022/10/18 08:26:08;;;;;;;23.20;6.15;;;13.50;99.90;;;;;;4985553;28;36660;-81
2022/10/18 08:28:38;;;;;;;23.08;6.50;;;13.50;99.90;;;;;;4990820;28;47113;-80
2022/10/18 08:31:18;;;;;;;16.67;4.50;;;13.60;99.90;;;;;;5000850;28;38989;-81
2022/10/18 08:33:47;;;;;;;14.70;4.32;;;13.60;99.90;;;;;;4971481;28;48168;-80
2022/10/18 08:36:20;;;;;;;14.93;4.03;;;13.50;99.90;;;;;;4986002;28;37918;-80
2022/10/18 08:38:48;;;;;;;20.42;4.40;;;13.60;99.90;;;;;;4983322;28;37392;-80
2022/10/18 08:41:26;;;;;;;16.20;3.78;;;13.60;99.90;;;;;;4978952;28;37014;-80
2022/10/18 08:44:17;;;;;;;16.58;4.32;;;13.70;99.90;;;;;;4996153;28;38791;-83
2022/10/18 08:46:50;;;;;;;15.32;3.75;;;13.70;99.90;;;;;;4976347;28;47799;-82
2022/10/18 08:49:44;;;;;;;15.95;3.47;;;13.60;99.90;;;;;;4972787;28;37574;-79
2022/10/18 08:52:26;;;;;;;18.73;3.35;;;13.70;99.90;;;;;;5000925;28;39224;-82
2022/10/18 08:55:19;;;;;;;10.77;2.17;;;13.80;99.90;;;;;;4984446;28;37946;-82
2022/10/18 08:57:46;;;;;;;14.25;2.17;;;13.80;99.90;;;;;;4982298;28;48511;-80
2022/10/18 09:00:21;;;;;;;9.27;2.13;;;13.80;99.90;;;;;;4982721;28;37700;-80
2022/10/18 09:03:13;;;;;;;11.38;2.28;;;13.80;99.90;;;;;;4977394;28;38455;-81
2022/10/18 09:05:54;;;;;;;9.30;1.98;;;13.90;99.90;;;;;;4961546;28;47468;-78
2022/10/18 09:08:44;;;;;;;10.48;2.40;;;13.90;99.90;;;;;;4968150;28;37876;-79
2022/10/18 09:11:26;;;;;;;11.98;2.00;;;14.00;99.90;;;;;;4966482;28;37829;-79
2022/10/18 09:14:29;;;;;;;9.13;2.30;;;14.00;99.90;;;;;;4988950;28;37907;-80
2022/10/18 09:17:22;;;;;;;7.93;2.10;;;14.00;99.90;;;;;;4989790;28;48425;-80
2022/10/18 09:19:53;;;;;;;5.65;1.27;;;14.10;99.90;;;;;;4976517;28;47157;-80
2022/10/18 09:22:30;;;;;;;11.15;1.75;;;14.10;99.90;;;;;;4988504;28;37462;-79
2022/10/18 09:25:10;;;;;;;12.23;1.50;;;14.20;99.90;;;;;;4969364;28;38348;-79
2022/10/18 09:27:52;;;;;;;13.57;1.88;;;14.20;99.90;;;;;;4969187;28;47234;-79
2022/10/18 09:30:30;;;;;;;14.48;1.63;;;14.20;99.90;;;;;;4971901;28;41402;-79
2022/10/18 09:33:08;;;;;;;10.27;1.63;;;14.20;99.90;;;;;;4978627;28;36975;-80
2022/10/18 09:35:49;;;;;;;9.93;2.13;;;14.40;99.90;;;;;;4964822;28;48145;-80
2022/10/18 09:38:22;;;;;;;10.88;1.85;;;14.40;99.90;;;;;;4974192;28;37706;-80
2022/10/18 09:40:57;;;;;;;9.13;1.75;;;14.40;99.90;;;;;;4977837;28;36930;-80
2022/10/18 09:43:38;;;;;;;10.57;1.92;;;14.50;99.90;;;;;;4997875;28;37279;-80
2022/10/18 09:46:05;;;;;;;9.77;1.73;;;14.60;99.90;;;;;;4999769;28;37275;-80
2022/10/18 09:49:13;;;;;;;11.57;1.85;;;14.70;99.90;;;;;;4987181;28;48475;-80
2022/10/18 09:51:41;;;;;;;17.85;2.45;;;14.90;99.90;;;;;;4954642;28;47208;-80
2022/10/18 09:54:33;;;;;;;9.02;1.65;;;15.20;99.90;;;;;;4972675;28;37745;-80
2022/10/18 09:57:17;;;;;;;6.88;2.30;;;15.30;99.90;;;;;;5000032;28;39206;-80
2022/10/18 09:59:46;;;;;;;7.40;1.40;;;15.50;99.90;;;;;;4994294;28;48770;-80
2022/10/18 10:02:15;;;;;;;9.57;2.00;;;15.40;99.90;;;;;;4970126;28;37142;-80
2022/10/18 10:04:41;;;;;;;12.00;3.25;;;15.50;99.90;;;;;;4971413;28;36197;-80
2022/10/18 10:07:11;;;;;;;8.80;1.90;;;15.50;99.90;;;;;;4968729;28;39612;-80
2022/10/18 10:10:06;;;;;;;11.85;1.70;;;15.50;99.90;;;;;;4981283;28;39065;-81
2022/10/18 10:12:35;;;;;;;8.95;1.73;;;15.70;99.90;;;;;;4971535;28;46940;-80
2022/10/18 10:15:28;;;;;;;8.25;1.83;;;15.70;99.90;;;;;;4991148;28;36862;-80
2022/10/18 10:18:20;;;;;;;6.35;1.50;;;15.90;99.90;;;;;;4972069;28;47382;-80
2022/10/18 10:20:54;;;;;;;12.43;2.13;;;15.90;99.90;;;;;;4947876;28;47656;-81
2022/10/18 10:23:30;;;;;;;13.85;2.35;;;16.00;99.90;;;;;;4994704;28;37260;-82
2022/10/18 10:26:28;;;;;;;8.65;1.80;;;16.10;99.90;;;;;;4989298;28;38369;-81
2022/10/18 10:28:54;;;;;;;9.70;1.70;;;16.30;99.90;;;;;;4981891;28;49432;-81
2022/10/18 10:31:23;;;;;;;9.13;1.67;;;16.40;99.90;;;;;;4976681;28;38301;-84
2022/10/18 10:34:02;;;;;;;13.88;1.80;;;16.50;99.90;;;;;;4977831;28;36618;-80
2022/10/18 10:36:30;;;;;;;7.47;1.85;;;16.60;99.90;;;;;;4965110;28;49304;-87
2022/10/18 10:39:09;;;;;;;7.72;1.25;;;16.70;99.90;;;;;;4960493;28;38995;-83
2022/10/18 10:41:38;;;;;;;15.32;1.73;;;16.90;99.90;;;;;;4951392;28;47316;-81
2022/10/18 10:44:14;;;;;;;11.52;1.58;;;17.10;99.90;;;;;;4955191;28;36943;-83
2022/10/18 10:46:40;;;;;;;7.43;1.50;;;17.20;99.90;;;;;;4958336;28;37952;-83
2022/10/18 10:49:22;;;;;;;8.75;1.48;;;17.30;99.90;;;;;;4947380;28;39543;-82
2022/10/18 10:51:59;;;;;;;6.95;1.27;;;17.40;99.90;;;;;;4949777;28;39172;-82
2022/10/18 10:54:27;;;;;;;7.05;1.60;;;17.60;99.90;;;;;;4975806;28;37568;-80
2022/10/18 10:57:03;;;;;;;6.93;1.27;;;17.70;99.90;;;;;;4976238;28;40043;-82
2022/10/18 10:59:40;;;;;;;7.75;1.73;;;17.80;99.90;;;;;;4959444;28;46940;-82
2022/10/18 11:02:18;;;;;;;10.48;2.10;;;17.90;99.90;;;;;;4956494;28;38028;-82
2022/10/18 11:04:46;;;;;;;9.05;1.40;;;18.00;99.90;;;;;;4949794;28;40655;-82
2022/10/18 11:07:35;;;;;;;13.57;1.65;;;18.10;99.90;;;;;;4953094;28;37486;-82
2022/10/18 11:10:13;;;;;;;6.32;1.58;;;18.10;99.90;;;;;;4956304;28;38806;-82
2022/10/18 11:13:07;;;;;;;6.47;1.42;;;18.10;99.90;;;;;;4953024;28;47443;-83
2022/10/18 11:15:45;;;;;;;8.35;2.08;;;18.10;99.90;;;;;;4939539;28;48459;-83
2022/10/18 11:18:31;;;;;;;12.55;1.50;;;18.20;99.90;;;;;;4976618;28;36982;-84
2022/10/18 11:21:11;;;;;;;8.15;1.52;;;18.30;99.90;;;;;;4956441;28;38820;-83
2022/10/18 11:23:40;;;;;;;8.70;1.67;;;18.30;99.90;;;;;;4953206;28;46953;-83
2022/10/18 11:26:11;;;;;;;6.30;1.52;;;18.30;99.90;;;;;;4969946;28;37665;-82
2022/10/18 11:29:02;;;;;;;10.70;1.67;;;18.40;99.90;;;;;;4972939;28;37803;-84
2022/10/18 11:31:52;;;;;;;8.82;2.00;;;18.40;99.90;;;;;;4969754;28;38820;-80
2022/10/18 11:34:31;;;;;;;10.20;1.75;;;18.50;99.90;;;;;;4967648;28;38461;-83
2022/10/18 11:37:22;;;;;;;9.80;1.90;;;18.60;99.90;;;;;;4969829;28;38923;-83
2022/10/18 11:39:57;;;;;;;7.25;1.73;;;18.70;99.90;;;;;;4955299;28;47362;-77
2022/10/18 11:42:40;;;;;;;6.72;1.70;;;18.70;99.90;;;;;;4945768;28;37807;-79
2022/10/18 11:45:25;;;;;;;9.32;1.67;;;18.80;99.90;;;;;;4955791;28;39348;-78
2022/10/18 11:48:03;;;;;;;7.47;1.35;;;18.80;99.90;;;;;;4969473;28;36931;-78
2022/10/18 11:50:55;;;;;;;5.70;1.38;;;18.80;99.90;;;;;;4964694;28;47107;-78
2022/10/18 11:53:42;;;;;;;14.20;2.60;;;18.90;99.90;;;;;;4951434;28;37286;-78
2022/10/18 11:56:28;;;;;;;8.18;1.60;;;19.00;99.90;;;;;;4963218;28;37498;-78
2022/10/18 11:59:32;;;;;;;10.73;1.73;;;19.00;99.90;;;;;;4964626;28;37803;-78
2022/10/18 12:02:30;;;;;;;5.32;1.40;;;19.00;99.90;;;;;;4968456;28;48895;-78
2022/10/18 12:05:01;;;;;;;8.75;1.55;;;19.00;99.90;;;;;;4975754;28;46830;-77
2022/10/18 12:07:35;;;;;;;7.57;1.67;;;18.90;99.90;;;;;;4957705;28;37401;-77
2022/10/18 12:10:05;;;;;;;11.38;1.70;;;19.10;99.90;;;;;;4985067;28;38158;-76
2022/10/18 12:12:35;;;;;;;8.15;1.45;;;19.00;99.90;;;;;;4975247;28;46842;-77
2022/10/18 12:15:12;;;;;;;7.18;1.48;;;19.00;99.90;;;;;;4964743;28;38583;-77
2022/10/18 12:17:44;;;;;;;6.60;1.25;;;19.00;99.90;;;;;;4969733;28;47418;-77
2022/10/18 12:20:17;;;;;;;5.63;1.17;;;19.10;99.90;;;;;;4951086;28;36860;-78
2022/10/18 12:22:59;;;;;;;8.05;1.50;;;19.30;99.90;;;;;;4968799;28;34623;-77
2022/10/18 12:25:31;;;;;;;7.78;1.20;;;19.30;99.90;;;;;;4950930;28;37627;-78
2022/10/18 12:28:12;;;;;;;7.03;1.55;;;19.40;99.90;;;;;;4965152;28;37998;-77
2022/10/18 12:31:03;;;;;;;5.93;1.30;;;19.40;99.90;;;;;;4942589;28;47379;-77
2022/10/18 12:33:45;;;;;;;10.13;1.45;;;19.40;99.90;;;;;;4951253;28;47969;-78
2022/10/18 12:36:19;;;;;;;7.47;1.48;;;19.40;99.90;;;;;;4965341;28;38393;-77
2022/10/18 12:39:00;;;;;;;6.00;1.55;;;19.40;99.90;;;;;;4964584;28;40146;-77
2022/10/18 12:41:31;;;;;;;8.95;1.20;;;19.30;99.90;;;;;;4958111;28;37436;-78
2022/10/18 12:44:04;;;;;;;5.47;1.25;;;19.30;99.90;;;;;;4967863;28;37390;-77
2022/10/18 12:46:52;;;;;;;7.03;1.40;;;19.40;99.90;;;;;;4965634;28;48493;-77
2022/10/18 12:49:33;;;;;;;9.32;1.98;;;19.40;99.90;;;;;;4957343;28;38765;-77
2022/10/18 12:52:03;;;;;;;7.75;1.38;;;19.40;99.90;;;;;;4952662;28;36762;-78
2022/10/18 12:54:32;;;;;;;9.02;1.25;;;19.40;99.90;;;;;;4968558;28;47333;-77
2022/10/18 12:57:00;;;;;;;9.85;1.20;;;19.50;99.90;;;;;;4949136;28;38228;-77
2022/10/18 12:59:26;;;;;;;4.95;1.55;;;19.40;99.90;;;;;;4954584;28;37090;-78
2022/10/18 13:01:52;;;;;;;5.30;1.30;;;19.40;99.90;;;;;;4965275;28;40666;-78
2022/10/18 13:04:27;;;;;;;5.88;1.30;;;19.40;99.90;;;;;;4972184;28;35842;-77
2022/10/18 13:06:59;;;;;;;6.65;1.20;;;19.50;99.90;;;;;;4953653;28;39323;-77
2022/10/18 13:09:29;;;;;;;4.53;1.05;;;19.50;99.90;;;;;;4951569;28;37820;-77
2022/10/18 13:12:11;;;;;;;4.00;0.93;;;19.20;99.90;;;;;;4955998;28;38070;-77
2022/10/18 13:14:40;;;;;;;4.32;1.10;;;19.20;99.90;;;;;;4971526;28;48794;-75
2022/10/18 13:17:25;;;;;;;6.38;1.13;;;19.20;99.90;;;;;;4964651;28;38569;-75
2022/10/18 13:20:14;;;;;;;4.55;0.80;;;19.10;99.90;;;;;;4954990;28;37866;-75
2022/10/18 13:22:52;;;;;;;5.97;1.13;;;19.00;99.90;;;;;;4973489;28;49409;-76
2022/10/18 13:25:27;;;;;;;5.35;0.90;;;19.00;99.90;;;;;;4974977;28;37809;-76
2022/10/18 13:28:02;;;;;;;4.65;1.15;;;19.10;99.90;;;;;;4954150;28;37603;-76
2022/10/18 13:30:50;;;;;;;5.55;0.88;;;19.20;99.90;;;;;;4951882;28;47129;-76
2022/10/18 13:33:34;;;;;;;6.75;1.33;;;19.20;99.90;;;;;;4953890;28;36954;-75
2022/10/18 13:36:03;;;;;;;6.93;0.90;;;19.20;99.90;;;;;;4962798;28;37339;-76
2022/10/18 13:39:02;;;;;;;2.97;0.98;;;19.20;99.90;;;;;;4949349;28;39678;-76
2022/10/18 13:41:53;;;;;;;3.50;0.90;;;19.30;99.90;;;;;;4935951;28;38896;-76
2022/10/18 13:44:30;;;;;;;3.13;0.85;;;19.20;99.90;;;;;;4935329;28;36387;-76
2022/10/18 13:46:56;;;;;;;3.25;1.15;;;19.20;99.90;;;;;;4953651;28;36225;-76
2022/10/18 13:49:38;;;;;;;6.30;1.00;;;19.10;99.90;;;;;;4953258;28;37515;-76
2022/10/18 13:52:16;;;;;;;5.40;1.20;;;19.00;99.90;;;;;;4971516;28;38252;-76
2022/10/18 13:55:07;;;;;;;4.40;1.00;;;19.00;99.90;;;;;;4971062;28;37827;-76
2022/10/18 13:57:51;;;;;;;6.78;1.02;;;19.00;99.90;;;;;;4975736;28;49304;-76
2022/10/18 14:00:51;;;;;;;6.22;1.60;;;19.00;99.90;;;;;;4978458;28;38320;-76
2022/10/18 14:03:35;;;;;;;7.38;1.17;;;19.00;99.90;;;;;;4975642;28;38831;-75
2022/10/18 14:06:21;;;;;;;5.00;1.05;;;18.90;99.90;;;;;;4974257;28;38377;-76
2022/10/18 14:09:01;;;;;;;5.93;1.42;;;18.90;99.90;;;;;;4976035;28;48441;-76
2022/10/18 14:11:39;;;;;;;4.97;0.90;;;18.80;99.90;;;;;;4947784;28;37912;-75
2022/10/18 14:14:22;;;;;;;7.00;1.13;;;18.80;99.90;;;;;;4971891;28;38081;-76
2022/10/18 14:16:51;;;;;;;6.55;1.08;;;18.80;99.90;;;;;;4962963;28;37876;-75
2022/10/18 14:19:32;;;;;;;8.10;0.98;;;18.70;99.90;;;;;;4949324;28;37923;-75
2022/10/18 14:22:16;;;;;;;4.22;1.00;;;18.60;99.90;;;;;;4973166;28;39843;-76
2022/10/18 14:24:50;;;;;;;8.02;1.20;;;18.60;99.90;;;;;;4969146;28;48672;-75
2022/10/18 14:27:25;;;;;;;5.53;1.00;;;18.60;99.90;;;;;;4966572;28;36867;-75
2022/10/18 14:30:18;;;;;;;3.67;0.80;;;18.60;99.90;;;;;;4971602;28;36451;-75
2022/10/18 14:32:50;;;;;;;6.63;0.98;;;18.60;99.90;;;;;;4956644;28;48675;-75
2022/10/18 14:35:23;;;;;;;;;;;18.60;99.90;;;;;;4951180;28;37333;-76
2022/10/18 14:37:52;;;;;;;3.60;0.80;;;18.50;99.90;;;;;;4977995;28;38862;-76
2022/10/18 14:40:37;;;;;;;7.80;1.20;;;18.40;99.90;;;;;;4955275;28;37594;-77
2022/10/18 14:43:17;;;;;;;5.13;0.90;;;18.40;99.90;;;;;;4957533;28;38787;-76
2022/10/18 14:45:44;;;;;;;4.47;0.70;;;18.40;99.90;;;;;;4977068;28;41536;-77
2022/10/18 14:48:19;;;;;;;5.18;1.17;;;18.30;99.90;;;;;;4957753;28;36929;-76
2022/10/18 14:50:59;;;;;;;6.80;1.30;;;18.30;99.90;;;;;;4974686;28;36729;-76
2022/10/18 14:53:31;;;;;;;8.57;1.67;;;18.30;99.90;;;;;;4954722;28;37654;-76
2022/10/18 14:56:03;;;;;;;5.80;1.23;;;18.20;99.90;;;;;;4958428;28;38555;-76
2022/10/18 14:58:30;;;;;;;7.70;1.63;;;18.10;99.90;;;;;;4964710;28;38282;-77
2022/10/18 15:00:57;;;;;;;5.38;1.15;;;18.00;99.90;;;;;;4968333;28;36941;-76
2022/10/18 15:03:27;;;;;;;5.03;1.17;;;17.90;99.90;;;;;;4951816;28;38603;-75
2022/10/18 15:05:53;;;;;;;8.95;1.08;;;17.80;99.90;;;;;;4949930;28;38537;-76
2022/10/18 15:08:20;;;;;;;5.25;0.80;;;17.70;99.90;;;;;;4950873;28;37986;-76
2022/10/18 15:10:47;;;;;;;6.15;0.90;;;17.70;99.90;;;;;;4964938;28;39000;-76
2022/10/18 15:13:14;;;;;;;6.05;1.10;;;17.60;99.90;;;;;;4943529;28;42962;-76
2022/10/18 15:15:42;;;;;;;5.25;0.93;;;17.60;99.90;;;;;;4949653;28;36818;-76
2022/10/18 15:18:22;;;;;;;1.98;0.80;;;17.60;99.90;;;;;;4952427;28;38725;-75
2022/10/18 15:21:21;;;;;;;4.45;0.80;;;17.50;99.90;;;;;;4971405;28;38108;-75
2022/10/18 15:23:48;;;;;;;6.90;1.00;;;17.50;99.90;;;;;;4952816;28;48307;-75
2022/10/18 15:26:28;;;;;;;4.30;1.15;;;17.40;99.90;;;;;;4966671;28;39525;-75
2022/10/18 15:28:57;;;;;;;4.22;0.98;;;17.30;99.90;;;;;;4958746;28;38244;-75
2022/10/18 15:31:27;;;;;;;9.13;1.20;;;17.30;99.90;;;;;;4940510;28;35800;-75
2022/10/18 15:34:20;;;;;;;6.80;1.33;;;17.20;99.90;;;;;;4948953;28;39723;-75
2022/10/18 15:36:47;;;;;;;;;;;17.20;99.90;;;;;;4968501;28;48492;-75
2022/10/18 15:39:13;;;;;;;4.65;0.82;;;17.10;99.90;;;;;;4968787;28;38782;-76
2022/10/18 15:41:47;;;;;;;3.70;1.00;;;17.00;99.90;;;;;;4952907;28;36796;-75
2022/10/18 15:44:23;;;;;;;7.07;1.33;;;17.00;99.90;;;;;;4950928;28;39514;-75
2022/10/18 15:46:53;;;;;;;6.70;1.10;;;16.90;99.90;;;;;;4954293;28;39299;-75
2022/10/18 15:49:51;;;;;;;6.93;1.70;;;16.90;99.90;;;;;;4947101;28;37438;-74
2022/10/18 15:52:34;;;;;;;7.85;1.40;;;16.80;99.90;;;;;;4955278;28;37477;-74
2022/10/18 15:55:00;;;;;;;;;;;16.70;99.90;;;;;;4969954;28;38889;-75
2022/10/18 15:57:29;;;;;;;6.63;1.17;;;16.70;99.90;;;;;;4950724;28;38766;-74
2022/10/18 16:00:04;;;;;;;7.00;1.35;;;16.60;99.90;;;;;;4964866;28;37921;-76
2022/10/18 16:02:31;;;;;;;9.70;1.42;;;16.50;99.90;;;;;;4950160;28;36177;-75
2022/10/18 16:05:01;;;;;;;4.85;1.20;;;16.40;99.90;;;;;;4945838;28;39882;-78
2022/10/18 16:07:27;;;;;;;7.68;1.63;;;16.30;99.90;;;;;;4955411;28;37522;-76
2022/10/18 16:09:53;;;;;;;8.43;1.27;;;16.20;99.90;;;;;;4965409;28;38039;-76
2022/10/18 16:12:19;;;;;;;8.32;1.52;;;16.10;99.90;;;;;;4952575;28;36443;-75
2022/10/18 16:14:47;;;;;;;4.47;1.15;;;16.00;99.90;;;;;;4965565;28;38999;-76
2022/10/18 16:17:15;;;;;;;7.68;1.20;;;15.90;99.90;;;;;;4971888;28;38635;-77
2022/10/18 16:19:44;;;;;;;9.02;1.58;;;15.80;99.90;;;;;;4955895;28;36357;-76
2022/10/18 16:22:12;;;;;;;11.10;1.65;;;15.70;99.90;;;;;;4969439;28;36930;-76
2022/10/18 16:24:38;;;;;;;7.38;1.90;;;15.60;99.90;;;;;;4974127;28;39871;-76
2022/10/18 16:27:05;;;;;;;8.77;1.63;;;15.40;99.90;;;;;;4955999;28;38003;-76
2022/10/18 16:29:32;;;;;;;6.13;1.42;;;15.30;99.90;;;;;;4958410;28;38450;-77
2022/10/18 16:31:58;;;;;;;6.97;1.20;;;15.20;99.90;;;;;;4971699;28;36357;-76
2022/10/18 16:34:25;;;;;;;6.22;1.40;;;15.10;99.90;;;;;;4957855;28;40250;-77
2022/10/18 16:36:52;;;;;;;7.82;2.35;;;15.00;99.90;;;;;;4958168;28;38936;-78
2022/10/18 16:39:20;;;;;;;6.57;1.67;;;14.90;99.90;;;;;;4967052;28;37664;-76
2022/10/18 16:41:47;;;;;;;5.57;1.20;;;14.80;99.90;;;;;;4965466;28;37160;-76
2022/10/18 16:44:14;;;;;;;8.63;1.40;;;14.70;99.90;;;;;;4976832;28;39697;-78
2022/10/18 16:46:41;;;;;;;6.72;1.63;;;14.70;99.90;;;;;;4973523;28;38591;-78
2022/10/18 16:49:17;;;;;;;3.85;1.40;;;14.60;99.90;;;;;;4953582;28;38290;-77
2022/10/18 16:51:43;;;;;;;10.45;1.75;;;14.50;99.90;;;;;;4977531;28;38125;-78
2022/10/18 16:54:09;;;;;;;4.28;1.15;;;14.40;99.90;;;;;;4968296;28;39526;-78
2022/10/18 16:56:35;;;;;;;8.55;1.42;;;14.40;99.90;;;;;;4969734;28;38115;-78
2022/10/18 16:59:01;;;;;;;8.00;1.13;;;14.30;99.90;;;;;;4959837;28;39145;-78
2022/10/18 17:01:27;;;;;;;9.95;1.60;;;14.20;99.90;;;;;;4952880;28;37696;-77
2022/10/18 17:03:55;;;;;;;6.20;1.30;;;14.20;99.90;;;;;;4975155;28;39418;-79
2022/10/18 17:06:25;;;;;;;6.53;1.40;;;14.10;99.90;;;;;;4953181;28;38914;-77
2022/10/18 17:08:52;;;;;;;4.85;1.23;;;14.10;99.90;;;;;;4950201;28;39329;-77
2022/10/18 17:11:20;;;;;;;9.55;1.80;;;14.00;99.90;;;;;;4957335;28;36075;-77
2022/10/18 17:13:46;;;;;;;9.25;1.90;;;14.00;99.90;;;;;;4962714;28;39283;-77
2022/10/18 17:16:30;;;;;;;6.30;1.70;;;13.90;99.90;;;;;;4935841;28;37562;-77
2022/10/18 17:19:01;;;;;;;7.82;2.47;;;13.90;99.90;;;;;;4976593;28;38571;-77
2022/10/18 17:21:27;;;;;;;13.00;2.17;;;13.70;99.90;;;;;;4975113;28;37525;-77
2022/10/18 17:23:59;;;;;;;9.27;2.40;;;13.70;99.90;;;;;;4977819;28;40249;-77
2022/10/18 17:26:26;;;;;;;7.20;2.35;;;13.70;99.90;;;;;;4958577;28;37715;-77
2022/10/18 17:28:54;;;;;;;14.68;2.35;;;13.60;99.90;;;;;;4956336;28;39331;-77
2022/10/18 17:31:21;;;;;;;9.25;2.15;;;13.60;99.90;;;;;;4973704;28;38090;-77
2022/10/18 17:33:47;;;;;;;7.97;1.90;;;13.50;99.90;;;;;;4981070;28;38811;-77
2022/10/18 17:36:13;;;;;;;11.60;2.20;;;13.50;99.90;;;;;;4963398;28;42223;-77
2022/10/18 17:38:39;;;;;;;14.23;3.08;;;13.50;99.90;;;;;;4956544;28;37939;-77
2022/10/18 17:41:10;;;;;;;6.05;2.03;;;13.40;99.90;;;;;;4979117;28;37400;-77
2022/10/18 17:43:37;;;;;;;8.07;2.25;;;13.30;99.90;;;;;;4957793;28;40171;-77
2022/10/18 17:46:04;;;;;;;9.48;1.98;;;13.20;99.90;;;;;;4971346;28;39525;-77
2022/10/18 17:48:30;;;;;;;10.48;2.22;;;13.20;99.90;;;;;;4946749;28;38986;-77